Wilton, Alabama
Current Conditions -  °F | °C
As of 11:53 AM on Friday 28 Nov 2014 (Local Time) from KEET Reporting Station
Clear Clear  
Wind Chill: 44°   Ceiling: Unl
Heat Index: 46°   Visibility: 10mi
Dew Point: 16°   Wind: 5mph
Humidity: 30%   Direction: NA
Pressure: 30.38"   Gusts: NA
Location:  33.08°N, 86.88°W
Report Text: KEET 281753Z AUTO VRB04KT 10SM CLR 08/M09 A3038 RMK AO2 SLP289 T00781089 10083 21011 58023
Loading
Personal Weather Stations






























Interactive Weather Map New forecast layout! Learn more

10-Day Weather Forecast

Advertisements
Track Severe Weather on mobile